Carlos Ramos

Olheiro - Rosario Central
17 Jul 2027
Sábado
Processo

Personalidade

Adaptabilidade (16) Ambição (14) Controvérsia (19) Lealdade (15) Pressão (13) Profissionalismo (11) Espírito Esportivo (9) Temperamento (10)

Perfil

Estilo de Treinamento Democrático
Licença Nacional B
Determinação 6
Gestão de Pessoas 5
Motivação 7
Disciplina 13
Satisfação no Trabalho
100%
Fadiga
0%
Função Olheiro
Salário 88.0K p/s
Contrato 14.03.2029

Desempenho

Comportamento Bom
Eficácia do Treinamento
50%
Desenvolvimento do Jogador
50%
Prevenção de Lesões
70%
Implementação Tática
50%

Eventos Recentes

Participou de uma reunião de recrutamento agora
Recomendou um alvo de transferência agora
Participou de uma reunião de recrutamento agora
Participou de uma reunião de recrutamento 7d atrás
Recomendou um alvo de transferência 7d atrás
Participou de uma reunião de recrutamento 7d atrás
Participou de uma reunião de recrutamento 7d atrás
Apresentou um dossiê à direção 7d atrás

Monitorando agora

172
Jogador Clube Status Habilidade Confiança Observado Última observação Último voto
Federico Pérez Agropecuario Argentino Ativo 104 / 115 69% 1 12.07.2027 Aprovar
Ricardo Centurión Racing Perdido 106 / 119 69% 1 05.07.2027 Aprovar
Abraham Paintsil Hasaacas Ativo 89 / 83 40% 4 31.05.2027 -
Christos Mouzakitis Hull City Ativo 121 / 138 40% 4 31.05.2027 -
Lucas Bergvall Tottenham Ativo 142 / 140 40% 2 31.05.2027 -
Filip Marschall Stevenage Ativo 105 / 99 40% 7 28.05.2027 -
Radek Vítek Middlesbrough Ativo 137 / 153 40% 11 28.05.2027 -
Thiago Silvero Sevilla Ativo 116 / 120 40% 3 28.05.2027 -
Tobías Ramírez Sevilla Ativo 129 / 124 40% 2 28.05.2027 -
Sebastián Flores Rayo Vallecano Ativo 96 / 109 40% 2 28.05.2027 -
Zach Hemming Chesterfield Ativo 105 / 106 40% 3 28.05.2027 -
Sascha Britschgi Catanzaro Ativo 123 / 132 40% 3 27.05.2027 Observar
Enzo Cardozo Virtus Entella Ativo 115 / 129 40% 2 26.05.2027 -
Jofre Torrents Ajax Ativo 118 / 125 40% 1 26.05.2027 -
Luis Ingolotti Girona Ativo 134 / 136 40% 1 24.05.2027 -
Juan David Arizala Udinese Ativo 133 / 127 40% 1 23.05.2027 -
George Wickens Lincoln City Ativo 121 / 115 40% 7 20.05.2027 -
Josh Keeley Luton Town Ativo 139 / 141 40% 5 20.05.2027 -
Myles Roberts Doncaster Rovers Ativo 110 / 91 40% 7 20.05.2027 -
Diego Cheuquepal Racing Ativo 94 / 111 40% 2 17.05.2027 -
Bakary Haïdara Hearts of Oak Ativo 102 / 129 40% 1 17.05.2027 -
Kostantis Tzolakis Hull City Ativo 145 / 161 40% 12 15.05.2027 -
Riquelme Thompson-Jones Shrewsbury Town Ativo 103 / 126 40% 2 15.05.2027 -
Gabriele Baldi AlbinoLeffe Ativo 102 / 103 40% 2 15.05.2027 -
Jordan Amissah Burton Albion Ativo 114 / 96 40% 2 15.05.2027 -
Matías Gómez Valencia Ativo 118 / 120 40% 1 15.05.2027 -
Maduka Okoye Udinese Ativo 149 / 132 40% 5 13.05.2027 -
William Rovida Pro Patria Ativo 111 / 91 40% 3 13.05.2027 -
Murphy Cooper Plymouth Argyle Ativo 104 / 130 40% 5 12.05.2027 -
Pietro Reggiori Pro Patria Ativo 93 / 107 40% 2 10.05.2027 -
Zahir Ibarra Elche Ativo 95 / 91 40% 1 10.05.2027 -
Jaydee Canvot Liverpool Ativo 129 / 122 40% 1 10.05.2027 -
Đorđe Petrović Bournemouth Ativo 151 / 143 40% 4 09.05.2027 -
Erico Cuello Defensor Sporting Ativo 94 / 109 40% 3 09.05.2027 -
Sam Curtis Swindon Town Ativo 108 / 94 40% 1 09.05.2027 -
Matteo Rizzo Cosenza Ativo 110 / 121 40% 1 05.05.2027 -
Elia Boseggia Novara Ativo 113 / 123 40% 1 04.05.2027 -
Facundo Di Biasi Getafe Ativo 121 / 115 40% 2 03.05.2027 -
Jonathan De Irastorza Levante Ativo 110 / 114 40% 2 03.05.2027 -
Joshua Oluwayemi Walsall Ativo 108 / 90 40% 2 30.04.2027 -
T-Jay Parfitt Cardiff City Ativo 85 / 83 40% 1 29.04.2027 -
Facundo Balatti Penarol Ativo 99 / 123 40% 1 28.04.2027 -
Gianluca Saro Foggia Ativo 111 / 109 40% 1 25.04.2027 -
Will Dennis Milton Keynes Dons Ativo 118 / 102 40% 3 24.04.2027 -
Lorenzo Palmisani Frosinone Ativo 136 / 148 40% 4 24.04.2027 -
Tiago Freitas Benfica Ativo 99 / 109 40% 1 23.04.2027 -
Lucas Jetten Cambuur Ativo 114 / 113 40% 2 20.04.2027 -
Tommaso Cecotti Carpi Ativo 98 / 89 40% 1 20.04.2027 -
Mads Hermansen West Ham United Ativo 131 / 146 40% 6 18.04.2027 -
Williams Mahlangu SuperSport United Ativo 103 / 98 40% 2 18.04.2027 -
Leandro Martins Benfica Ativo 94 / 102 40% 3 16.04.2027 -
Anthony Patterson Wrexham Ativo 132 / 137 40% 5 12.04.2027 -
Gonçalo Oliveira Benfica Ativo 97 / 123 40% 1 05.04.2027 -
Surprise Manthosi Polokwane City Ativo 91 / 87 40% 1 05.04.2027 -
Ludovico Del Sorbo Sorrento Ativo 99 / 103 40% 1 04.04.2027 -
James Trafford Leeds United Ativo 141 / 138 40% 6 26.03.2027 -
Michael Cooper Sheffield United Ativo 142 / 136 40% 4 26.03.2027 -
Samu Maccabi Netanya Ativo 107 / 107 40% 2 24.03.2027 -
Arthur Beroe Ativo 112 / 126 40% 1 18.03.2027 -
Nathan Bishop AFC Wimbledon Ativo 96 / 101 40% 3 12.03.2027 -
Grégoire Coudert Burnley Ativo 121 / 121 40% 4 11.03.2027 -
Bento Lokomotiv Moscow Ativo 130 / 152 40% 1 03.03.2027 -
Fathy Tarek Masr El Makasa Ativo 97 / 116 40% 2 25.02.2027 -
Fran Vieites Exeter City Ativo 115 / 121 40% 4 25.02.2027 -
Taye Ashby-Hammond Cheltenham Town Ativo 109 / 109 40% 2 22.02.2027 -
Killian Cahill Leyton Orient Ativo 96 / 118 40% 2 20.02.2027 -
Lukas Jensen Millwall Ativo 128 / 102 40% 3 13.02.2027 -
Svetoslav Vutsov Levski Ativo 121 / 124 40% 5 12.02.2027 -
Kermit Erasmus Platinum Stars Ativo 111 / 112 40% 2 12.02.2027 -
Fabrizio Correa Nacional Ativo 115 / 127 40% 1 12.02.2027 -
Heorhii Yermakov Metalist Ativo 108 / 107 40% 4 07.02.2027 -
Carl Rushworth Coventry City Ativo 126 / 143 40% 3 05.02.2027 -
Mohamed Camara Asante Kotoko Ativo 92 / 102 40% 1 05.02.2027 -
Federico Varese Racing Ativo 114 / 113 40% 6 31.01.2027 -
Osagie Onisodumeya Al Gaish Ativo 96 / 115 40% 1 25.01.2027 -
Evidence Billiat Ajax Cape Town Ativo 120 / 96 40% 2 24.01.2027 -
Ivan Pakholiuk Kolos Ativo 110 / 121 40% 2 12.01.2027 -
Igor Nikić Lech Ativo 113 / 131 40% 1 11.01.2027 -
Agustín Lastra Estudiantes Ativo 105 / 106 40% 1 06.01.2027 -
Tomáš Frühwald Bohemians 1905 Ativo 123 / 103 40% 2 04.01.2027 -
Iñaki Peña Panathinaikos Ativo 154 / 152 40% 1 29.11.2026 -
Nicolás Azambuja Danubio Ativo 108 / 124 40% 7 24.11.2026 -
Albert Posiadała Molde Ativo 134 / 126 40% 5 24.11.2026 -
Inti López River Plate Ativo 91 / 105 40% 1 24.11.2026 -
Enrique Almeida Cerro Largo Ativo 95 / 90 40% 3 22.11.2026 -
Esteban Crucci Wanderers Ativo 93 / 99 40% 1 22.11.2026 -
Luka Andrade Montevideo City Torque Ativo 103 / 111 40% 3 21.11.2026 -
Lautaro Piola Vélez Ativo 101 / 94 40% 1 21.11.2026 -
Sindre Walle Egeli Nottingham Forest Ativo 139 / 144 40% 1 19.11.2026 -
Federico Losas Chacarita Juniors Ativo 111 / 114 40% 4 17.11.2026 -
Alexandr Koryakin Krasnodar Ativo 122 / 97 40% 3 17.11.2026 -
Felipe Zenobio Tigre Ativo 127 / 131 40% 2 14.11.2026 -
Luciano Inverso Rentistas Ativo 106 / 115 40% 4 13.11.2026 -
Matías Contrera Northampton Town Ativo 87 / 101 40% 3 13.11.2026 -
Matías Dufour Sportivo Trinidense Ativo 108 / 106 40% 1 11.11.2026 -
Luka Baš Koper Ativo 101 / 116 40% 1 10.11.2026 -
Klemen Mihelak Jablonec Ativo 103 / 94 40% 2 09.11.2026 -
Franco Zapiola Platense Ativo 124 / 114 40% 1 08.11.2026 -
Alexis Cuello San Lorenzo Ativo 123 / 121 40% 1 08.11.2026 -
Luca Langoni New England Revolution Ativo 141 / 133 40% 1 08.11.2026 -
Victor Aznar Cádiz Ativo 127 / 128 40% 1 05.11.2026 -
Strahinja Manojlović Radnicki Nis Ativo 105 / 92 40% 1 05.11.2026 -
Raúl Rangel Brighton Ativo 134 / 117 40% 2 03.11.2026 -
Ilyas Ansah Hull City Ativo 134 / 137 40% 1 02.11.2026 Mais informações
Sebastián Jaume Albion Ativo 100 / 98 40% 1 02.11.2026 -
Ángel González Libertad Ativo 108 / 104 40% 4 01.11.2026 -
Nicolás Bolcato Independiente Rivadavia Ativo 107 / 111 40% 3 30.10.2026 -
Santiago González Tigre Ativo 130 / 117 40% 1 30.10.2026 -
Relebohile Mofokeng Orlando Pirates Ativo 122 / 114 40% 1 30.10.2026 -
Viktor Baier Viktoria Plzen Ativo 107 / 124 40% 1 30.10.2026 -
Luther Tau SuperSport United Ativo 111 / 95 40% 1 29.10.2026 -
Elías Báez Atlanta United FC Ativo 109 / 140 40% 1 27.10.2026 -
Tadeo Allende Inter Miami CF Ativo 116 / 104 40% 1 27.10.2026 -
Lucas Ruiz Ferro Carril Oeste Ativo 112 / 120 40% 2 26.10.2026 -
Marc Pubill Atlético Madrid Ativo 151 / 153 40% 2 26.10.2026 -
Marquinhos Spartak Moscow Ativo 135 / 112 40% 1 26.10.2026 -
Santiago Montiel Independiente Ativo 118 / 135 40% 1 26.10.2026 -
Carlos Palacios Boca Juniors Ativo 129 / 131 40% 1 25.10.2026 -
David Ayala Inter Miami CF Ativo 110 / 113 40% 1 25.10.2026 -
Marvin Keller Racing Genk Negociando 143 / 128 40% 4 23.10.2026 Observar
Tomás Ahumada Audax Italiano Ativo 104 / 111 40% 1 22.10.2026 -
Denys Ihnatenko Livyi Bereh Ativo 104 / 110 40% 1 21.10.2026 -
Agustín Ruberto River Plate Ativo 119 / 123 40% 3 19.10.2026 -
Szymon Weirauch Lechia Ativo 102 / 88 40% 1 19.10.2026 -
Tiziano Dornell Almagro Ativo 119 / 115 40% 3 17.10.2026 -
Bautista Pereira Danubio Ativo 87 / 90 40% 2 17.10.2026 -
Martin Carreño San Luis Ativo 86 / 100 40% 2 17.10.2026 -
Pascal Loretz Luzern Ativo 115 / 107 40% 1 17.10.2026 -
Matías Fernández Independiente Rivadavia Ativo 115 / 113 40% 1 16.10.2026 -
Luciano Boggio Nacional Ativo 117 / 131 40% 1 16.10.2026 -
Pablo Suárez Rentistas Ativo 90 / 92 40% 2 15.10.2026 -
Facundo Núñez Liverpool Montevideo Ativo 92 / 105 40% 4 14.10.2026 -
Dilan Godoy Vélez Ativo 107 / 115 40% 1 14.10.2026 -
Oleksandr Saputin Zorya Ativo 102 / 121 40% 1 13.10.2026 -
Fedor Lapoukhov CSKA Sofia Ativo 123 / 123 40% 2 12.10.2026 -
Facundo Vila Estudiantes Ativo 103 / 113 40% 2 04.10.2026 -
Héctor Holguín Morelia Ativo 121 / 102 40% 1 04.10.2026 -
Tomás Chancalay Minnesota United FC Ativo 122 / 138 40% 1 29.09.2026 -
Helinho Toluca Ativo 121 / 142 40% 1 29.09.2026 -
Alejo Cruz Juventud Ativo 113 / 115 40% 1 29.09.2026 -
Patrick Preciado Deportivo Pasto Ativo 100 / 102 40% 2 28.09.2026 -
Dom Ballard Leyton Orient Ativo 121 / 138 40% 1 28.09.2026 -
Jonás Luna Wanderers Ativo 121 / 111 40% 3 27.09.2026 -
Yoshan Valois Lanús Ativo 120 / 113 40% 3 26.09.2026 -
Jefferson Mejia Cortulua Ativo 115 / 127 40% 2 24.09.2026 -
Nicolás Sumavil Platense Ativo 116 / 125 40% 1 24.09.2026 -
Yastin Cuevas Colo-Colo Ativo 92 / 114 40% 1 21.09.2026 -
Róyner Benítez Aguilas Doradas Ativo 107 / 104 40% 2 19.09.2026 -
Felipe Serrés Wanderers Ativo 88 / 103 40% 2 18.09.2026 -
Juan David Ruiz Leones Ativo 94 / 93 40% 1 17.09.2026 -
Ihojan Pérez Cerro Largo Ativo 90 / 94 40% 1 17.09.2026 -
Sławomir Abramowicz Jagiellonia Ativo 106 / 141 40% 1 16.09.2026 -
Franco Romero Toluca Ativo 129 / 120 40% 1 15.09.2026 -
Ramiro Sordo Santos Laguna Ativo 125 / 111 40% 1 15.09.2026 -
Elis Bishesari IFK Goteborg Ativo 107 / 136 40% 2 14.09.2026 -
Andreas Jungdal Westerlo Ativo 126 / 104 40% 2 13.09.2026 -
Beau Reus Waasland-Beveren Ativo 116 / 106 40% 2 12.09.2026 -
Bruno Hernández Cerro Largo Ativo 92 / 96 40% 1 11.09.2026 -
Mauro Silveira Junior Ativo 119 / 116 40% 1 11.09.2026 -
Miguel Hurtado Valledupar Ativo 101 / 94 40% 1 11.09.2026 -
Pablo Lara Pumas UNAM Ativo 109 / 98 40% 3 10.09.2026 -
Miguel Acosta Argentinos Juniors Ativo 113 / 96 40% 1 07.09.2026 -
Diego Otoya Sporting Cristal Ativo 86 / 91 40% 1 30.08.2026 -
Rodrigo Hernández River Plate Ativo 81 / 84 40% 1 27.08.2026 -
Efrain Reyes Monterrey Ativo 96 / 103 40% 2 22.08.2026 -
Jakub Surovčík Sparta Prague Ativo 95 / 128 40% 1 22.08.2026 -
Luis Palacios Tigres Ativo 104 / 106 40% 2 16.08.2026 -
Gino Santilli Banfield Ativo 117 / 108 40% 1 14.08.2026 -
Nahuel Galardi Maipú Ativo 101 / 108 40% 1 08.08.2026 -
Santiago Roggero Gimnasia y Esgrima Ativo 105 / 105 40% 1 08.08.2026 -
Diego Enríquez Sporting Cristal Ativo 129 / 128 40% 1 08.08.2026 -
Ángel Fortuño Espanyol Ativo 133 / 129 40% 1 01.08.2026 -